sensor_id;sensor_type;location;lat;lon;timestamp;P1;durP1;ratioP1;P2;durP2;ratioP2
70545;SDS011;58098;51.680;5.134;2023-03-01T00:00:38;12.90;;;8.70;;
70545;SDS011;58098;51.680;5.134;2023-03-01T00:03:03;14.07;;;9.23;;
70545;SDS011;58098;51.680;5.134;2023-03-01T00:05:29;16.67;;;10.20;;
70545;SDS011;58098;51.680;5.134;2023-03-01T00:07:54;11.27;;;7.20;;
70545;SDS011;58098;51.680;5.134;2023-03-01T00:10:20;13.88;;;8.75;;
70545;SDS011;58098;51.680;5.134;2023-03-01T00:12:45;13.73;;;8.73;;
70545;SDS011;58098;51.680;5.134;2023-03-01T00:15:10;16.43;;;9.30;;
70545;SDS011;58098;51.680;5.134;2023-03-01T00:17:36;16.33;;;8.93;;
70545;SDS011;58098;51.680;5.134;2023-03-01T00:20:02;15.10;;;9.23;;
70545;SDS011;58098;51.680;5.134;2023-03-01T00:22:27;10.73;;;8.40;;
70545;SDS011;58098;51.680;5.134;2023-03-01T00:24:55;14.38;;;9.10;;
70545;SDS011;58098;51.680;5.134;2023-03-01T00:27:21;13.93;;;9.10;;
70545;SDS011;58098;51.680;5.134;2023-03-01T00:29:46;16.60;;;9.17;;
70545;SDS011;58098;51.680;5.134;2023-03-01T00:32:11;13.47;;;8.83;;
70545;SDS011;58098;51.680;5.134;2023-03-01T00:34:37;15.05;;;8.95;;
70545;SDS011;58098;51.680;5.134;2023-03-01T00:37:02;14.10;;;8.50;;
70545;SDS011;58098;51.680;5.134;2023-03-01T00:39:30;12.88;;;8.50;;
70545;SDS011;58098;51.680;5.134;2023-03-01T00:41:56;14.27;;;9.10;;
70545;SDS011;58098;51.680;5.134;2023-03-01T00:44:21;15.43;;;9.70;;
70545;SDS011;58098;51.680;5.134;2023-03-01T00:46:47;15.03;;;9.37;;
70545;SDS011;58098;51.680;5.134;2023-03-01T00:49:12;16.60;;;8.43;;
70545;SDS011;58098;51.680;5.134;2023-03-01T00:51:38;15.10;;;9.20;;
70545;SDS011;58098;51.680;5.134;2023-03-01T00:54:07;13.70;;;9.30;;
70545;SDS011;58098;51.680;5.134;2023-03-01T00:56:34;14.60;;;9.77;;
70545;SDS011;58098;51.680;5.134;2023-03-01T00:58:59;14.93;;;9.70;;
70545;SDS011;58098;51.680;5.134;2023-03-01T01:01:26;16.05;;;9.90;;
70545;SDS011;58098;51.680;5.134;2023-03-01T01:04:08;13.15;;;9.23;;
70545;SDS011;58098;51.680;5.134;2023-03-01T01:06:39;16.23;;;10.40;;
70545;SDS011;58098;51.680;5.134;2023-03-01T01:09:10;14.95;;;9.38;;
70545;SDS011;58098;51.680;5.134;2023-03-01T01:11:44;16.83;;;10.25;;
70545;SDS011;58098;51.680;5.134;2023-03-01T01:14:11;16.15;;;10.00;;
70545;SDS011;58098;51.680;5.134;2023-03-01T01:16:37;17.13;;;10.30;;
70545;SDS011;58098;51.680;5.134;2023-03-01T01:19:03;17.37;;;10.20;;
70545;SDS011;58098;51.680;5.134;2023-03-01T01:21:29;14.33;;;9.40;;
70545;SDS011;58098;51.680;5.134;2023-03-01T01:23:54;16.45;;;9.02;;
70545;SDS011;58098;51.680;5.134;2023-03-01T01:26:24;14.63;;;9.07;;
70545;SDS011;58098;51.680;5.134;2023-03-01T01:28:52;13.30;;;9.27;;
70545;SDS011;58098;51.680;5.134;2023-03-01T01:31:18;16.00;;;10.23;;
70545;SDS011;58098;51.680;5.134;2023-03-01T01:33:44;16.73;;;10.50;;
70545;SDS011;58098;51.680;5.134;2023-03-01T01:36:09;14.80;;;9.37;;
70545;SDS011;58098;51.680;5.134;2023-03-01T01:38:36;14.40;;;9.55;;
70545;SDS011;58098;51.680;5.134;2023-03-01T01:41:02;14.95;;;9.70;;
70545;SDS011;58098;51.680;5.134;2023-03-01T01:43:30;16.85;;;10.43;;
70545;SDS011;58098;51.680;5.134;2023-03-01T01:46:01;13.90;;;9.63;;
70545;SDS011;58098;51.680;5.134;2023-03-01T01:48:43;16.63;;;9.25;;
70545;SDS011;58098;51.680;5.134;2023-03-01T01:51:30;14.20;;;9.52;;
70545;SDS011;58098;51.680;5.134;2023-03-01T01:54:03;14.57;;;9.77;;
70545;SDS011;58098;51.680;5.134;2023-03-01T01:56:34;16.25;;;9.40;;
70545;SDS011;58098;51.680;5.134;2023-03-01T01:59:01;17.60;;;8.90;;
70545;SDS011;58098;51.680;5.134;2023-03-01T02:01:27;14.40;;;8.95;;
70545;SDS011;58098;51.680;5.134;2023-03-01T02:03:52;14.60;;;9.47;;
70545;SDS011;58098;51.680;5.134;2023-03-01T02:06:37;16.10;;;9.60;;
70545;SDS011;58098;51.680;5.134;2023-03-01T02:09:07;21.35;;;10.50;;
70545;SDS011;58098;51.680;5.134;2023-03-01T02:11:37;15.23;;;9.48;;
70545;SDS011;58098;51.680;5.134;2023-03-01T02:14:03;16.97;;;9.73;;
70545;SDS011;58098;51.680;5.134;2023-03-01T02:16:29;15.77;;;9.40;;
70545;SDS011;58098;51.680;5.134;2023-03-01T02:18:56;15.60;;;9.37;;
70545;SDS011;58098;51.680;5.134;2023-03-01T02:21:39;17.42;;;10.77;;
70545;SDS011;58098;51.680;5.134;2023-03-01T02:27:05;19.02;;;9.85;;
70545;SDS011;58098;51.680;5.134;2023-03-01T02:29:30;18.37;;;10.17;;
70545;SDS011;58098;51.680;5.134;2023-03-01T02:31:56;14.97;;;9.20;;
70545;SDS011;58098;51.680;5.134;2023-03-01T02:34:25;13.60;;;9.18;;
70545;SDS011;58098;51.680;5.134;2023-03-01T02:36:57;20.08;;;10.45;;
70545;SDS011;58098;51.680;5.134;2023-03-01T02:39:33;16.75;;;9.50;;
70545;SDS011;58098;51.680;5.134;2023-03-01T02:42:07;13.23;;;8.50;;
70545;SDS011;58098;51.680;5.134;2023-03-01T02:44:36;25.67;;;10.60;;
70545;SDS011;58098;51.680;5.134;2023-03-01T02:47:01;16.23;;;8.83;;
70545;SDS011;58098;51.680;5.134;2023-03-01T02:49:29;15.43;;;9.02;;
70545;SDS011;58098;51.680;5.134;2023-03-01T02:56:56;16.83;;;9.40;;
70545;SDS011;58098;51.680;5.134;2023-03-01T02:59:24;14.73;;;9.82;;
70545;SDS011;58098;51.680;5.134;2023-03-01T03:01:53;18.23;;;8.20;;
70545;SDS011;58098;51.680;5.134;2023-03-01T03:04:18;13.00;;;8.17;;
70545;SDS011;58098;51.680;5.134;2023-03-01T03:06:45;13.45;;;8.80;;
70545;SDS011;58098;51.680;5.134;2023-03-01T03:09:13;13.63;;;8.75;;
70545;SDS011;58098;51.680;5.134;2023-03-01T03:11:39;13.05;;;8.30;;
70545;SDS011;58098;51.680;5.134;2023-03-01T03:14:06;10.88;;;7.65;;
70545;SDS011;58098;51.680;5.134;2023-03-01T03:16:39;13.50;;;8.23;;
70545;SDS011;58098;51.680;5.134;2023-03-01T03:19:09;11.52;;;7.68;;
70545;SDS011;58098;51.680;5.134;2023-03-01T03:21:35;11.82;;;8.30;;
70545;SDS011;58098;51.680;5.134;2023-03-01T03:24:00;15.40;;;8.57;;
70545;SDS011;58098;51.680;5.134;2023-03-01T03:26:26;14.77;;;8.70;;
70545;SDS011;58098;51.680;5.134;2023-03-01T03:28:51;13.40;;;8.40;;
70545;SDS011;58098;51.680;5.134;2023-03-01T03:31:17;16.63;;;9.67;;
70545;SDS011;58098;51.680;5.134;2023-03-01T03:33:42;13.43;;;8.48;;
70545;SDS011;58098;51.680;5.134;2023-03-01T03:36:07;12.20;;;8.50;;
70545;SDS011;58098;51.680;5.134;2023-03-01T03:38:38;14.27;;;8.57;;
70545;SDS011;58098;51.680;5.134;2023-03-01T03:41:05;16.23;;;9.27;;
70545;SDS011;58098;51.680;5.134;2023-03-01T03:43:32;15.70;;;9.60;;
70545;SDS011;58098;51.680;5.134;2023-03-01T03:45:59;18.23;;;8.45;;
70545;SDS011;58098;51.680;5.134;2023-03-01T03:48:25;13.18;;;9.05;;
70545;SDS011;58098;51.680;5.134;2023-03-01T03:50:52;13.63;;;8.82;;
70545;SDS011;58098;51.680;5.134;2023-03-01T03:53:19;19.73;;;9.50;;
70545;SDS011;58098;51.680;5.134;2023-03-01T03:55:46;14.52;;;8.95;;
70545;SDS011;58098;51.680;5.134;2023-03-01T03:58:14;14.00;;;8.38;;
70545;SDS011;58098;51.680;5.134;2023-03-01T04:00:42;14.23;;;8.65;;
70545;SDS011;58098;51.680;5.134;2023-03-01T04:03:09;14.68;;;8.30;;
70545;SDS011;58098;51.680;5.134;2023-03-01T04:05:36;14.73;;;9.00;;
70545;SDS011;58098;51.680;5.134;2023-03-01T04:08:03;13.27;;;8.75;;
70545;SDS011;58098;51.680;5.134;2023-03-01T04:10:33;20.17;;;8.70;;
70545;SDS011;58098;51.680;5.134;2023-03-01T04:13:07;12.95;;;8.50;;
70545;SDS011;58098;51.680;5.134;2023-03-01T04:15:36;13.43;;;8.50;;
70545;SDS011;58098;51.680;5.134;2023-03-01T04:18:01;17.83;;;9.17;;
70545;SDS011;58098;51.680;5.134;2023-03-01T04:20:29;15.82;;;8.13;;
70545;SDS011;58098;51.680;5.134;2023-03-01T04:22:57;16.73;;;9.02;;
70545;SDS011;58098;51.680;5.134;2023-03-01T04:28:04;13.60;;;8.93;;
70545;SDS011;58098;51.680;5.134;2023-03-01T04:30:30;16.52;;;9.10;;
70545;SDS011;58098;51.680;5.134;2023-03-01T04:33:00;15.13;;;8.97;;
70545;SDS011;58098;51.680;5.134;2023-03-01T04:35:30;14.85;;;9.25;;
70545;SDS011;58098;51.680;5.134;2023-03-01T04:37:56;14.05;;;8.65;;
70545;SDS011;58098;51.680;5.134;2023-03-01T04:40:21;15.93;;;8.43;;
70545;SDS011;58098;51.680;5.134;2023-03-01T04:42:46;14.63;;;8.73;;
70545;SDS011;58098;51.680;5.134;2023-03-01T04:45:12;16.97;;;9.50;;
70545;SDS011;58098;51.680;5.134;2023-03-01T04:47:40;12.55;;;8.02;;
70545;SDS011;58098;51.680;5.134;2023-03-01T04:50:11;15.88;;;7.95;;
70545;SDS011;58098;51.680;5.134;2023-03-01T04:52:38;13.77;;;8.88;;
70545;SDS011;58098;51.680;5.134;2023-03-01T04:55:04;13.30;;;7.77;;
70545;SDS011;58098;51.680;5.134;2023-03-01T04:57:30;12.13;;;7.93;;
70545;SDS011;58098;51.680;5.134;2023-03-01T04:59:56;16.20;;;8.10;;
70545;SDS011;58098;51.680;5.134;2023-03-01T05:02:22;14.55;;;8.98;;
70545;SDS011;58098;51.680;5.134;2023-03-01T05:04:47;14.67;;;8.73;;
70545;SDS011;58098;51.680;5.134;2023-03-01T05:07:13;12.87;;;7.93;;
70545;SDS011;58098;51.680;5.134;2023-03-01T05:09:45;12.48;;;8.25;;
70545;SDS011;58098;51.680;5.134;2023-03-01T05:12:11;13.73;;;8.77;;
70545;SDS011;58098;51.680;5.134;2023-03-01T05:14:36;13.00;;;7.60;;
70545;SDS011;58098;51.680;5.134;2023-03-01T05:17:03;16.92;;;8.63;;
70545;SDS011;58098;51.680;5.134;2023-03-01T05:19:29;13.60;;;8.00;;
70545;SDS011;58098;51.680;5.134;2023-03-01T05:21:56;12.18;;;7.75;;
70545;SDS011;58098;51.680;5.134;2023-03-01T05:24:31;12.10;;;7.30;;
70545;SDS011;58098;51.680;5.134;2023-03-01T05:26:59;15.15;;;7.75;;
70545;SDS011;58098;51.680;5.134;2023-03-01T05:29:25;15.00;;;8.17;;
70545;SDS011;58098;51.680;5.134;2023-03-01T05:31:53;12.20;;;7.30;;
70545;SDS011;58098;51.680;5.134;2023-03-01T05:34:27;14.55;;;8.05;;
70545;SDS011;58098;51.680;5.134;2023-03-01T05:36:57;13.32;;;7.65;;
70545;SDS011;58098;51.680;5.134;2023-03-01T05:39:23;14.03;;;8.23;;
70545;SDS011;58098;51.680;5.134;2023-03-01T05:41:57;15.93;;;8.25;;
70545;SDS011;58098;51.680;5.134;2023-03-01T05:44:25;12.77;;;8.23;;
70545;SDS011;58098;51.680;5.134;2023-03-01T05:46:51;18.40;;;9.00;;
70545;SDS011;58098;51.680;5.134;2023-03-01T05:49:16;15.17;;;8.50;;
70545;SDS011;58098;51.680;5.134;2023-03-01T05:51:42;12.82;;;8.05;;
70545;SDS011;58098;51.680;5.134;2023-03-01T05:54:12;15.67;;;7.90;;
70545;SDS011;58098;51.680;5.134;2023-03-01T05:56:37;12.82;;;7.70;;
70545;SDS011;58098;51.680;5.134;2023-03-01T05:59:03;16.77;;;7.97;;
70545;SDS011;58098;51.680;5.134;2023-03-01T06:01:32;15.03;;;8.17;;
70545;SDS011;58098;51.680;5.134;2023-03-01T06:03:59;15.20;;;8.43;;
70545;SDS011;58098;51.680;5.134;2023-03-01T06:06:24;20.63;;;8.63;;
70545;SDS011;58098;51.680;5.134;2023-03-01T06:08:50;17.83;;;8.45;;
70545;SDS011;58098;51.680;5.134;2023-03-01T06:11:16;16.20;;;9.75;;
70545;SDS011;58098;51.680;5.134;2023-03-01T06:13:42;19.63;;;9.23;;
70545;SDS011;58098;51.680;5.134;2023-03-01T06:16:08;18.60;;;9.65;;
70545;SDS011;58098;51.680;5.134;2023-03-01T06:18:33;14.17;;;8.67;;
70545;SDS011;58098;51.680;5.134;2023-03-01T06:20:59;16.60;;;8.57;;
70545;SDS011;58098;51.680;5.134;2023-03-01T06:23:24;15.50;;;9.17;;
70545;SDS011;58098;51.680;5.134;2023-03-01T06:25:50;12.73;;;8.45;;
70545;SDS011;58098;51.680;5.134;2023-03-01T06:28:15;16.27;;;8.40;;
70545;SDS011;58098;51.680;5.134;2023-03-01T06:30:41;18.93;;;8.00;;
70545;SDS011;58098;51.680;5.134;2023-03-01T06:33:06;16.57;;;9.00;;
70545;SDS011;58098;51.680;5.134;2023-03-01T06:35:32;15.00;;;8.18;;
70545;SDS011;58098;51.680;5.134;2023-03-01T06:37:58;14.60;;;8.70;;
70545;SDS011;58098;51.680;5.134;2023-03-01T06:40:24;14.63;;;8.45;;
70545;SDS011;58098;51.680;5.134;2023-03-01T06:42:50;20.80;;;8.50;;
70545;SDS011;58098;51.680;5.134;2023-03-01T06:45:16;14.77;;;7.57;;
70545;SDS011;58098;51.680;5.134;2023-03-01T06:47:43;16.05;;;8.32;;
70545;SDS011;58098;51.680;5.134;2023-03-01T06:50:08;15.60;;;8.60;;
70545;SDS011;58098;51.680;5.134;2023-03-01T06:52:34;13.20;;;7.65;;
70545;SDS011;58098;51.680;5.134;2023-03-01T06:55:00;12.10;;;7.60;;
70545;SDS011;58098;51.680;5.134;2023-03-01T06:57:25;13.30;;;8.17;;
70545;SDS011;58098;51.680;5.134;2023-03-01T06:59:51;14.37;;;8.57;;
70545;SDS011;58098;51.680;5.134;2023-03-01T07:02:16;15.17;;;8.80;;
70545;SDS011;58098;51.680;5.134;2023-03-01T07:04:41;13.25;;;7.97;;
70545;SDS011;58098;51.680;5.134;2023-03-01T07:07:07;15.40;;;7.90;;
70545;SDS011;58098;51.680;5.134;2023-03-01T07:09:32;12.27;;;7.93;;
70545;SDS011;58098;51.680;5.134;2023-03-01T07:11:57;15.47;;;8.27;;
70545;SDS011;58098;51.680;5.134;2023-03-01T07:14:23;14.05;;;8.00;;
70545;SDS011;58098;51.680;5.134;2023-03-01T07:16:50;14.02;;;8.30;;
70545;SDS011;58098;51.680;5.134;2023-03-01T07:19:16;16.83;;;8.50;;
70545;SDS011;58098;51.680;5.134;2023-03-01T07:21:41;15.13;;;9.03;;
70545;SDS011;58098;51.680;5.134;2023-03-01T07:24:07;15.13;;;8.10;;
70545;SDS011;58098;51.680;5.134;2023-03-01T07:26:33;14.63;;;7.67;;
70545;SDS011;58098;51.680;5.134;2023-03-01T07:28:59;19.40;;;8.97;;
70545;SDS011;58098;51.680;5.134;2023-03-01T07:31:25;12.68;;;8.70;;
70545;SDS011;58098;51.680;5.134;2023-03-01T07:33:52;17.40;;;8.57;;
70545;SDS011;58098;51.680;5.134;2023-03-01T07:36:18;19.13;;;7.72;;
70545;SDS011;58098;51.680;5.134;2023-03-01T07:38:43;16.77;;;9.43;;
70545;SDS011;58098;51.680;5.134;2023-03-01T07:41:09;14.33;;;8.50;;
70545;SDS011;58098;51.680;5.134;2023-03-01T07:43:34;13.07;;;8.67;;
70545;SDS011;58098;51.680;5.134;2023-03-01T07:46:00;15.70;;;9.13;;
70545;SDS011;58098;51.680;5.134;2023-03-01T07:48:26;14.63;;;7.80;;
70545;SDS011;58098;51.680;5.134;2023-03-01T07:50:52;12.87;;;7.87;;
70545;SDS011;58098;51.680;5.134;2023-03-01T07:53:17;12.90;;;7.83;;
70545;SDS011;58098;51.680;5.134;2023-03-01T07:55:42;20.07;;;8.23;;
70545;SDS011;58098;51.680;5.134;2023-03-01T07:58:08;17.17;;;8.20;;
70545;SDS011;58098;51.680;5.134;2023-03-01T08:00:33;11.83;;;8.37;;
70545;SDS011;58098;51.680;5.134;2023-03-01T08:02:59;15.30;;;7.77;;
70545;SDS011;58098;51.680;5.134;2023-03-01T08:05:26;11.35;;;7.38;;
70545;SDS011;58098;51.680;5.134;2023-03-01T08:07:51;13.53;;;8.23;;
70545;SDS011;58098;51.680;5.134;2023-03-01T08:10:16;13.40;;;7.57;;
70545;SDS011;58098;51.680;5.134;2023-03-01T08:12:42;13.37;;;7.90;;
70545;SDS011;58098;51.680;5.134;2023-03-01T08:15:07;10.07;;;6.50;;
70545;SDS011;58098;51.680;5.134;2023-03-01T08:17:33;15.67;;;7.87;;
70545;SDS011;58098;51.680;5.134;2023-03-01T08:19:58;14.53;;;8.00;;
70545;SDS011;58098;51.680;5.134;2023-03-01T08:22:24;14.90;;;8.30;;
70545;SDS011;58098;51.680;5.134;2023-03-01T08:24:49;16.07;;;7.83;;
70545;SDS011;58098;51.680;5.134;2023-03-01T08:27:15;7.70;;;5.37;;
70545;SDS011;58098;51.680;5.134;2023-03-01T08:29:41;13.57;;;6.85;;
70545;SDS011;58098;51.680;5.134;2023-03-01T08:32:06;9.97;;;6.57;;
70545;SDS011;58098;51.680;5.134;2023-03-01T08:34:32;13.77;;;6.68;;
70545;SDS011;58098;51.680;5.134;2023-03-01T08:37:00;11.60;;;7.10;;
70545;SDS011;58098;51.680;5.134;2023-03-01T08:39:26;11.38;;;7.20;;
70545;SDS011;58098;51.680;5.134;2023-03-01T08:41:51;15.80;;;7.43;;
70545;SDS011;58098;51.680;5.134;2023-03-01T08:44:17;12.10;;;7.57;;
70545;SDS011;58098;51.680;5.134;2023-03-01T08:46:43;14.00;;;7.80;;
70545;SDS011;58098;51.680;5.134;2023-03-01T08:49:16;11.60;;;7.15;;
70545;SDS011;58098;51.680;5.134;2023-03-01T08:51:43;10.60;;;6.53;;
70545;SDS011;58098;51.680;5.134;2023-03-01T08:54:10;12.75;;;7.05;;
70545;SDS011;58098;51.680;5.134;2023-03-01T08:56:37;15.00;;;8.18;;
70545;SDS011;58098;51.680;5.134;2023-03-01T08:59:03;10.93;;;7.23;;
70545;SDS011;58098;51.680;5.134;2023-03-01T09:01:29;13.25;;;7.65;;
70545;SDS011;58098;51.680;5.134;2023-03-01T09:03:55;11.57;;;6.83;;
70545;SDS011;58098;51.680;5.134;2023-03-01T09:06:20;9.27;;;6.20;;
70545;SDS011;58098;51.680;5.134;2023-03-01T09:08:46;15.18;;;6.68;;
70545;SDS011;58098;51.680;5.134;2023-03-01T09:11:15;11.97;;;6.97;;
70545;SDS011;58098;51.680;5.134;2023-03-01T09:13:45;11.82;;;6.90;;
70545;SDS011;58098;51.680;5.134;2023-03-01T09:16:12;12.23;;;7.05;;
70545;SDS011;58098;51.680;5.134;2023-03-01T09:22:00;9.80;;;6.47;;
70545;SDS011;58098;51.680;5.134;2023-03-01T09:24:27;9.37;;;6.07;;
70545;SDS011;58098;51.680;5.134;2023-03-01T09:26:53;12.37;;;6.83;;
70545;SDS011;58098;51.680;5.134;2023-03-01T09:29:20;12.77;;;7.77;;
70545;SDS011;58098;51.680;5.134;2023-03-01T09:31:45;10.98;;;6.15;;
70545;SDS011;58098;51.680;5.134;2023-03-01T09:34:11;12.60;;;6.70;;
70545;SDS011;58098;51.680;5.134;2023-03-01T09:36:36;9.67;;;6.57;;
70545;SDS011;58098;51.680;5.134;2023-03-01T09:39:02;10.60;;;6.10;;
70545;SDS011;58098;51.680;5.134;2023-03-01T09:44:38;10.50;;;5.95;;
70545;SDS011;58098;51.680;5.134;2023-03-01T09:47:09;10.23;;;6.60;;
70545;SDS011;58098;51.680;5.134;2023-03-01T09:49:39;9.63;;;6.27;;
70545;SDS011;58098;51.680;5.134;2023-03-01T09:55:12;13.85;;;6.82;;
70545;SDS011;58098;51.680;5.134;2023-03-01T10:03:15;12.20;;;7.97;;
70545;SDS011;58098;51.680;5.134;2023-03-01T10:08:40;10.82;;;6.63;;
70545;SDS011;58098;51.680;5.134;2023-03-01T10:11:30;9.90;;;7.07;;
70545;SDS011;58098;51.680;5.134;2023-03-01T10:14:17;11.80;;;7.07;;
70545;SDS011;58098;51.680;5.134;2023-03-01T10:16:59;10.50;;;6.27;;
70545;SDS011;58098;51.680;5.134;2023-03-01T10:19:34;10.50;;;6.13;;
70545;SDS011;58098;51.680;5.134;2023-03-01T10:22:25;9.30;;;6.53;;
70545;SDS011;58098;51.680;5.134;2023-03-01T10:24:53;9.70;;;5.72;;
70545;SDS011;58098;51.680;5.134;2023-03-01T10:27:29;9.73;;;5.68;;
70545;SDS011;58098;51.680;5.134;2023-03-01T10:30:02;8.80;;;5.90;;
70545;SDS011;58098;51.680;5.134;2023-03-01T10:32:38;10.00;;;5.50;;
70545;SDS011;58098;51.680;5.134;2023-03-01T10:35:21;9.63;;;5.60;;
70545;SDS011;58098;51.680;5.134;2023-03-01T10:37:59;8.73;;;5.97;;
70545;SDS011;58098;51.680;5.134;2023-03-01T10:40:27;8.23;;;5.93;;
70545;SDS011;58098;51.680;5.134;2023-03-01T10:42:52;7.70;;;5.20;;
70545;SDS011;58098;51.680;5.134;2023-03-01T10:45:32;7.93;;;5.67;;
70545;SDS011;58098;51.680;5.134;2023-03-01T10:48:19;7.22;;;5.15;;
70545;SDS011;58098;51.680;5.134;2023-03-01T10:51:12;8.45;;;5.93;;
70545;SDS011;58098;51.680;5.134;2023-03-01T10:53:42;13.13;;;6.37;;
70545;SDS011;58098;51.680;5.134;2023-03-01T10:56:13;10.18;;;6.38;;
70545;SDS011;58098;51.680;5.134;2023-03-01T10:58:41;12.35;;;6.25;;
70545;SDS011;58098;51.680;5.134;2023-03-01T11:04:02;10.50;;;6.40;;
70545;SDS011;58098;51.680;5.134;2023-03-01T11:06:31;8.43;;;5.70;;
70545;SDS011;58098;51.680;5.134;2023-03-01T11:09:13;9.97;;;6.60;;
70545;SDS011;58098;51.680;5.134;2023-03-01T11:11:56;9.88;;;6.75;;
70545;SDS011;58098;51.680;5.134;2023-03-01T11:14:38;9.60;;;6.55;;
70545;SDS011;58098;51.680;5.134;2023-03-01T11:17:11;9.57;;;6.25;;
70545;SDS011;58098;51.680;5.134;2023-03-01T11:19:42;16.15;;;6.18;;
70545;SDS011;58098;51.680;5.134;2023-03-01T11:22:11;11.80;;;7.07;;
70545;SDS011;58098;51.680;5.134;2023-03-01T11:24:45;7.45;;;5.68;;
70545;SDS011;58098;51.680;5.134;2023-03-01T11:27:23;16.03;;;7.00;;
70545;SDS011;58098;51.680;5.134;2023-03-01T11:29:59;11.68;;;6.72;;
70545;SDS011;58098;51.680;5.134;2023-03-01T11:32:39;10.68;;;6.35;;
70545;SDS011;58098;51.680;5.134;2023-03-01T11:35:17;10.40;;;6.40;;
70545;SDS011;58098;51.680;5.134;2023-03-01T11:40:29;9.97;;;6.20;;
70545;SDS011;58098;51.680;5.134;2023-03-01T11:46:02;11.57;;;6.57;;
70545;SDS011;58098;51.680;5.134;2023-03-01T11:48:46;11.15;;;6.97;;
70545;SDS011;58098;51.680;5.134;2023-03-01T11:57:19;10.63;;;6.75;;
70545;SDS011;58098;51.680;5.134;2023-03-01T12:00:30;10.95;;;7.30;;
70545;SDS011;58098;51.680;5.134;2023-03-01T12:09:17;9.87;;;5.43;;
70545;SDS011;58098;51.680;5.134;2023-03-01T12:37:36;11.07;;;6.40;;
70545;SDS011;58098;51.680;5.134;2023-03-01T12:51:33;12.07;;;6.77;;
70545;SDS011;58098;51.680;5.134;2023-03-01T12:54:02;9.23;;;6.65;;
70545;SDS011;58098;51.680;5.134;2023-03-01T12:56:37;8.90;;;5.80;;
70545;SDS011;58098;51.680;5.134;2023-03-01T12:59:21;12.65;;;7.10;;
70545;SDS011;58098;51.680;5.134;2023-03-01T13:05:00;14.57;;;6.90;;
70545;SDS011;58098;51.680;5.134;2023-03-01T13:10:49;11.48;;;6.43;;
70545;SDS011;58098;51.680;5.134;2023-03-01T13:15:33;7.40;;;5.03;;
70545;SDS011;58098;51.680;5.134;2023-03-01T13:23:28;9.68;;;6.68;;
70545;SDS011;58098;51.680;5.134;2023-03-01T13:31:06;8.63;;;6.13;;
70545;SDS011;58098;51.680;5.134;2023-03-01T13:33:37;12.50;;;6.28;;
70545;SDS011;58098;51.680;5.134;2023-03-01T13:36:05;10.93;;;6.30;;
70545;SDS011;58098;51.680;5.134;2023-03-01T13:38:47;7.57;;;5.68;;
70545;SDS011;58098;51.680;5.134;2023-03-01T13:41:16;10.23;;;6.40;;
70545;SDS011;58098;51.680;5.134;2023-03-01T13:44:10;6.33;;;4.80;;
70545;SDS011;58098;51.680;5.134;2023-03-01T13:46:36;8.73;;;5.88;;
70545;SDS011;58098;51.680;5.134;2023-03-01T13:49:03;8.48;;;5.60;;
70545;SDS011;58098;51.680;5.134;2023-03-01T13:51:28;9.03;;;5.70;;
70545;SDS011;58098;51.680;5.134;2023-03-01T13:53:54;8.75;;;5.63;;
70545;SDS011;58098;51.680;5.134;2023-03-01T13:56:24;8.73;;;6.13;;
70545;SDS011;58098;51.680;5.134;2023-03-01T13:58:57;11.05;;;6.10;;
70545;SDS011;58098;51.680;5.134;2023-03-01T14:01:29;11.05;;;6.03;;
70545;SDS011;58098;51.680;5.134;2023-03-01T14:03:58;10.17;;;5.93;;
70545;SDS011;58098;51.680;5.134;2023-03-01T14:06:31;7.35;;;5.30;;
70545;SDS011;58098;51.680;5.134;2023-03-01T14:09:18;8.55;;;5.60;;
70545;SDS011;58098;51.680;5.134;2023-03-01T14:17:39;6.63;;;5.10;;
70545;SDS011;58098;51.680;5.134;2023-03-01T14:20:12;9.55;;;5.50;;
70545;SDS011;58098;51.680;5.134;2023-03-01T14:22:46;10.63;;;5.68;;
70545;SDS011;58098;51.680;5.134;2023-03-01T14:25:17;7.57;;;5.30;;
70545;SDS011;58098;51.680;5.134;2023-03-01T14:27:46;10.65;;;5.57;;
70545;SDS011;58098;51.680;5.134;2023-03-01T14:30:19;6.13;;;4.73;;
70545;SDS011;58098;51.680;5.134;2023-03-01T14:35:25;8.57;;;5.68;;
70545;SDS011;58098;51.680;5.134;2023-03-01T14:37:52;7.93;;;5.15;;
70545;SDS011;58098;51.680;5.134;2023-03-01T14:40:31;10.10;;;5.43;;
70545;SDS011;58098;51.680;5.134;2023-03-01T14:42:59;8.80;;;5.78;;
70545;SDS011;58098;51.680;5.134;2023-03-01T14:45:27;9.55;;;5.82;;
70545;SDS011;58098;51.680;5.134;2023-03-01T14:47:55;13.33;;;5.37;;
70545;SDS011;58098;51.680;5.134;2023-03-01T14:50:26;8.43;;;5.15;;
70545;SDS011;58098;51.680;5.134;2023-03-01T14:52:56;7.35;;;5.35;;
70545;SDS011;58098;51.680;5.134;2023-03-01T14:55:29;9.15;;;5.15;;
70545;SDS011;58098;51.680;5.134;2023-03-01T14:57:58;9.40;;;5.65;;
70545;SDS011;58098;51.680;5.134;2023-03-01T15:00:24;8.03;;;5.37;;
70545;SDS011;58098;51.680;5.134;2023-03-01T15:02:53;9.15;;;5.45;;
70545;SDS011;58098;51.680;5.134;2023-03-01T15:05:23;7.70;;;5.53;;
70545;SDS011;58098;51.680;5.134;2023-03-01T15:07:58;6.00;;;4.53;;
70545;SDS011;58098;51.680;5.134;2023-03-01T15:10:27;9.90;;;5.63;;
70545;SDS011;58098;51.680;5.134;2023-03-01T15:12:55;6.70;;;5.28;;
70545;SDS011;58098;51.680;5.134;2023-03-01T15:17:56;9.23;;;5.10;;
70545;SDS011;58098;51.680;5.134;2023-03-01T15:20:25;9.27;;;5.82;;
70545;SDS011;58098;51.680;5.134;2023-03-01T15:22:54;8.93;;;5.40;;
70545;SDS011;58098;51.680;5.134;2023-03-01T15:25:27;6.78;;;5.40;;
70545;SDS011;58098;51.680;5.134;2023-03-01T15:27:56;7.72;;;5.25;;
70545;SDS011;58098;51.680;5.134;2023-03-01T15:35:52;8.50;;;4.50;;
70545;SDS011;58098;51.680;5.134;2023-03-01T15:40:53;8.35;;;5.28;;
70545;SDS011;58098;51.680;5.134;2023-03-01T15:46:05;9.85;;;6.00;;
70545;SDS011;58098;51.680;5.134;2023-03-01T15:48:43;7.33;;;5.40;;
70545;SDS011;58098;51.680;5.134;2023-03-01T15:51:11;9.90;;;5.45;;
70545;SDS011;58098;51.680;5.134;2023-03-01T15:53:38;9.45;;;5.60;;
70545;SDS011;58098;51.680;5.134;2023-03-01T15:56:04;7.77;;;5.40;;
70545;SDS011;58098;51.680;5.134;2023-03-01T15:58:32;9.98;;;6.20;;
70545;SDS011;58098;51.680;5.134;2023-03-01T16:00:58;8.20;;;5.55;;
70545;SDS011;58098;51.680;5.134;2023-03-01T16:03:24;8.17;;;5.97;;
70545;SDS011;58098;51.680;5.134;2023-03-01T16:05:50;8.25;;;6.00;;
70545;SDS011;58098;51.680;5.134;2023-03-01T16:08:16;10.77;;;5.40;;
70545;SDS011;58098;51.680;5.134;2023-03-01T16:10:43;8.37;;;4.60;;
70545;SDS011;58098;51.680;5.134;2023-03-01T16:13:12;7.05;;;5.28;;
70545;SDS011;58098;51.680;5.134;2023-03-01T16:15:38;9.02;;;5.78;;
70545;SDS011;58098;51.680;5.134;2023-03-01T16:18:04;7.65;;;5.75;;
70545;SDS011;58098;51.680;5.134;2023-03-01T16:20:31;9.43;;;6.20;;
70545;SDS011;58098;51.680;5.134;2023-03-01T16:22:57;7.30;;;5.30;;
70545;SDS011;58098;51.680;5.134;2023-03-01T16:25:25;9.23;;;5.47;;
70545;SDS011;58098;51.680;5.134;2023-03-01T16:27:50;12.00;;;6.20;;
70545;SDS011;58098;51.680;5.134;2023-03-01T16:30:17;14.10;;;5.43;;
70545;SDS011;58098;51.680;5.134;2023-03-01T16:32:44;6.70;;;4.90;;
70545;SDS011;58098;51.680;5.134;2023-03-01T16:35:11;9.10;;;6.03;;
70545;SDS011;58098;51.680;5.134;2023-03-01T16:37:38;16.55;;;6.00;;
70545;SDS011;58098;51.680;5.134;2023-03-01T16:40:05;8.27;;;5.70;;
70545;SDS011;58098;51.680;5.134;2023-03-01T16:42:35;9.68;;;6.50;;
70545;SDS011;58098;51.680;5.134;2023-03-01T16:45:01;9.03;;;5.33;;
70545;SDS011;58098;51.680;5.134;2023-03-01T16:47:28;8.75;;;5.90;;
70545;SDS011;58098;51.680;5.134;2023-03-01T16:49:53;11.38;;;6.88;;
70545;SDS011;58098;51.680;5.134;2023-03-01T16:52:19;11.20;;;6.23;;
70545;SDS011;58098;51.680;5.134;2023-03-01T16:54:45;9.88;;;6.10;;